sensor_id;sensor_type;location;lat;lon;timestamp;P1;durP1;ratioP1;P2;durP2;ratioP2
68050;SDS011;54839;51.364;7.246;2023-08-12T00:01:48;30.07;;;26.90;;
68050;SDS011;54839;51.364;7.246;2023-08-12T00:04:13;28.83;;;25.73;;
68050;SDS011;54839;51.364;7.246;2023-08-12T00:06:40;28.10;;;25.23;;
68050;SDS011;54839;51.364;7.246;2023-08-12T00:09:06;30.83;;;27.83;;
68050;SDS011;54839;51.364;7.246;2023-08-12T00:11:34;26.77;;;23.97;;
68050;SDS011;54839;51.364;7.246;2023-08-12T00:14:00;28.23;;;25.23;;
68050;SDS011;54839;51.364;7.246;2023-08-12T00:16:25;29.40;;;26.40;;
68050;SDS011;54839;51.364;7.246;2023-08-12T00:18:51;29.40;;;26.37;;
68050;SDS011;54839;51.364;7.246;2023-08-12T00:21:16;30.03;;;27.10;;
68050;SDS011;54839;51.364;7.246;2023-08-12T00:23:42;25.83;;;23.27;;
68050;SDS011;54839;51.364;7.246;2023-08-12T00:26:09;30.03;;;26.97;;
68050;SDS011;54839;51.364;7.246;2023-08-12T00:28:35;29.23;;;26.17;;
68050;SDS011;54839;51.364;7.246;2023-08-12T00:31:02;28.50;;;25.60;;
68050;SDS011;54839;51.364;7.246;2023-08-12T00:33:28;29.47;;;26.40;;
68050;SDS011;54839;51.364;7.246;2023-08-12T00:35:54;28.43;;;25.60;;
68050;SDS011;54839;51.364;7.246;2023-08-12T00:38:22;34.63;;;30.93;;
68050;SDS011;54839;51.364;7.246;2023-08-12T00:40:48;31.80;;;28.40;;
68050;SDS011;54839;51.364;7.246;2023-08-12T00:43:13;28.80;;;26.00;;
68050;SDS011;54839;51.364;7.246;2023-08-12T00:45:39;32.30;;;29.17;;
68050;SDS011;54839;51.364;7.246;2023-08-12T00:48:05;31.90;;;28.57;;
68050;SDS011;54839;51.364;7.246;2023-08-12T00:50:33;32.40;;;29.10;;
68050;SDS011;54839;51.364;7.246;2023-08-12T00:52:59;30.80;;;27.67;;
68050;SDS011;54839;51.364;7.246;2023-08-12T00:55:25;30.77;;;27.50;;
68050;SDS011;54839;51.364;7.246;2023-08-12T00:57:50;31.57;;;28.30;;
68050;SDS011;54839;51.364;7.246;2023-08-12T01:00:16;33.87;;;30.27;;
68050;SDS011;54839;51.364;7.246;2023-08-12T01:02:44;32.50;;;29.20;;
68050;SDS011;54839;51.364;7.246;2023-08-12T01:05:14;35.00;;;31.43;;
68050;SDS011;54839;51.364;7.246;2023-08-12T01:07:41;34.47;;;30.93;;
68050;SDS011;54839;51.364;7.246;2023-08-12T01:10:07;37.57;;;33.40;;
68050;SDS011;54839;51.364;7.246;2023-08-12T01:12:59;36.50;;;32.50;;
68050;SDS011;54839;51.364;7.246;2023-08-12T01:15:31;38.70;;;33.57;;
68050;SDS011;54839;51.364;7.246;2023-08-12T01:17:58;32.40;;;29.03;;
68050;SDS011;54839;51.364;7.246;2023-08-12T01:20:26;35.77;;;31.90;;
68050;SDS011;54839;51.364;7.246;2023-08-12T01:22:52;29.77;;;25.63;;
68050;SDS011;54839;51.364;7.246;2023-08-12T01:25:24;28.83;;;26.03;;
68050;SDS011;54839;51.364;7.246;2023-08-12T01:27:50;29.50;;;26.50;;
68050;SDS011;54839;51.364;7.246;2023-08-12T01:30:15;28.57;;;25.73;;
68050;SDS011;54839;51.364;7.246;2023-08-12T01:35:35;32.13;;;28.63;;
68050;SDS011;54839;51.364;7.246;2023-08-12T01:38:05;36.20;;;30.07;;
68050;SDS011;54839;51.364;7.246;2023-08-12T01:40:33;35.73;;;31.87;;
68050;SDS011;54839;51.364;7.246;2023-08-12T01:43:01;33.30;;;28.27;;
68050;SDS011;54839;51.364;7.246;2023-08-12T01:45:30;30.50;;;26.80;;
68050;SDS011;54839;51.364;7.246;2023-08-12T01:47:57;28.23;;;25.27;;
68050;SDS011;54839;51.364;7.246;2023-08-12T01:50:22;25.93;;;23.37;;
68050;SDS011;54839;51.364;7.246;2023-08-12T01:52:48;26.13;;;23.40;;
68050;SDS011;54839;51.364;7.246;2023-08-12T01:55:13;26.23;;;23.67;;
68050;SDS011;54839;51.364;7.246;2023-08-12T01:57:39;28.13;;;24.90;;
68050;SDS011;54839;51.364;7.246;2023-08-12T02:00:05;24.30;;;21.70;;
68050;SDS011;54839;51.364;7.246;2023-08-12T02:02:31;23.20;;;20.83;;
68050;SDS011;54839;51.364;7.246;2023-08-12T02:04:56;23.47;;;21.17;;
68050;SDS011;54839;51.364;7.246;2023-08-12T02:07:22;21.93;;;19.50;;
68050;SDS011;54839;51.364;7.246;2023-08-12T02:09:48;19.87;;;17.87;;
68050;SDS011;54839;51.364;7.246;2023-08-12T02:12:13;21.47;;;19.47;;
68050;SDS011;54839;51.364;7.246;2023-08-12T02:14:39;24.87;;;20.63;;
68050;SDS011;54839;51.364;7.246;2023-08-12T02:17:04;22.03;;;19.87;;
68050;SDS011;54839;51.364;7.246;2023-08-12T02:19:31;22.20;;;20.00;;
68050;SDS011;54839;51.364;7.246;2023-08-12T02:21:58;19.30;;;17.50;;
68050;SDS011;54839;51.364;7.246;2023-08-12T02:24:23;21.23;;;18.50;;
68050;SDS011;54839;51.364;7.246;2023-08-12T02:26:49;19.30;;;17.30;;
68050;SDS011;54839;51.364;7.246;2023-08-12T02:29:15;19.37;;;17.57;;
68050;SDS011;54839;51.364;7.246;2023-08-12T02:31:40;20.83;;;18.60;;
68050;SDS011;54839;51.364;7.246;2023-08-12T02:34:07;24.27;;;20.67;;
68050;SDS011;54839;51.364;7.246;2023-08-12T02:36:32;21.40;;;19.30;;
68050;SDS011;54839;51.364;7.246;2023-08-12T02:38:58;21.70;;;19.50;;
68050;SDS011;54839;51.364;7.246;2023-08-12T02:41:24;24.23;;;21.10;;
68050;SDS011;54839;51.364;7.246;2023-08-12T02:43:49;24.37;;;22.13;;
68050;SDS011;54839;51.364;7.246;2023-08-12T02:46:15;20.30;;;18.30;;
68050;SDS011;54839;51.364;7.246;2023-08-12T02:48:41;25.47;;;22.73;;
68050;SDS011;54839;51.364;7.246;2023-08-12T02:51:07;19.23;;;17.43;;
68050;SDS011;54839;51.364;7.246;2023-08-12T02:53:33;22.70;;;20.30;;
68050;SDS011;54839;51.364;7.246;2023-08-12T02:55:58;20.30;;;18.07;;
68050;SDS011;54839;51.364;7.246;2023-08-12T02:58:24;19.87;;;17.87;;
68050;SDS011;54839;51.364;7.246;2023-08-12T03:00:50;21.27;;;18.87;;
68050;SDS011;54839;51.364;7.246;2023-08-12T03:03:16;17.70;;;15.87;;
68050;SDS011;54839;51.364;7.246;2023-08-12T03:05:41;19.30;;;16.83;;
68050;SDS011;54839;51.364;7.246;2023-08-12T03:08:11;21.93;;;19.10;;
68050;SDS011;54839;51.364;7.246;2023-08-12T03:10:37;21.90;;;19.60;;
68050;SDS011;54839;51.364;7.246;2023-08-12T03:13:03;21.10;;;19.00;;
68050;SDS011;54839;51.364;7.246;2023-08-12T03:15:29;18.50;;;16.70;;
68050;SDS011;54839;51.364;7.246;2023-08-12T03:17:55;16.67;;;14.97;;
68050;SDS011;54839;51.364;7.246;2023-08-12T03:20:21;18.40;;;16.60;;
68050;SDS011;54839;51.364;7.246;2023-08-12T03:22:47;16.70;;;15.00;;
68050;SDS011;54839;51.364;7.246;2023-08-12T03:25:13;19.13;;;17.17;;
68050;SDS011;54839;51.364;7.246;2023-08-12T03:27:40;19.73;;;17.90;;
68050;SDS011;54839;51.364;7.246;2023-08-12T03:30:06;17.97;;;16.27;;
68050;SDS011;54839;51.364;7.246;2023-08-12T03:32:32;18.60;;;16.90;;
68050;SDS011;54839;51.364;7.246;2023-08-12T03:34:58;19.17;;;17.27;;
68050;SDS011;54839;51.364;7.246;2023-08-12T03:37:24;17.80;;;16.17;;
68050;SDS011;54839;51.364;7.246;2023-08-12T03:39:50;20.37;;;18.57;;
68050;SDS011;54839;51.364;7.246;2023-08-12T03:42:16;20.90;;;18.80;;
68050;SDS011;54839;51.364;7.246;2023-08-12T03:44:42;20.30;;;18.30;;
68050;SDS011;54839;51.364;7.246;2023-08-12T03:47:08;21.47;;;18.90;;
68050;SDS011;54839;51.364;7.246;2023-08-12T03:49:33;18.27;;;16.57;;
68050;SDS011;54839;51.364;7.246;2023-08-12T03:51:59;19.30;;;17.27;;
68050;SDS011;54839;51.364;7.246;2023-08-12T03:54:25;17.37;;;15.77;;
68050;SDS011;54839;51.364;7.246;2023-08-12T03:56:50;18.10;;;16.50;;
68050;SDS011;54839;51.364;7.246;2023-08-12T03:59:16;18.80;;;17.10;;
68050;SDS011;54839;51.364;7.246;2023-08-12T04:01:41;17.77;;;16.10;;
68050;SDS011;54839;51.364;7.246;2023-08-12T04:04:07;18.17;;;16.00;;
68050;SDS011;54839;51.364;7.246;2023-08-12T04:06:32;17.33;;;15.63;;
68050;SDS011;54839;51.364;7.246;2023-08-12T04:08:58;18.43;;;16.50;;
68050;SDS011;54839;51.364;7.246;2023-08-12T04:11:23;14.43;;;13.03;;
68050;SDS011;54839;51.364;7.246;2023-08-12T04:13:49;16.80;;;15.10;;
68050;SDS011;54839;51.364;7.246;2023-08-12T04:16:15;18.33;;;16.00;;
68050;SDS011;54839;51.364;7.246;2023-08-12T04:18:41;19.37;;;16.70;;
68050;SDS011;54839;51.364;7.246;2023-08-12T04:21:07;16.50;;;14.80;;
68050;SDS011;54839;51.364;7.246;2023-08-12T04:23:33;17.33;;;15.33;;
68050;SDS011;54839;51.364;7.246;2023-08-12T04:25:58;15.77;;;14.47;;
68050;SDS011;54839;51.364;7.246;2023-08-12T04:28:24;15.37;;;13.93;;
68050;SDS011;54839;51.364;7.246;2023-08-12T04:30:50;22.93;;;13.87;;
68050;SDS011;54839;51.364;7.246;2023-08-12T04:33:17;16.20;;;14.67;;
68050;SDS011;54839;51.364;7.246;2023-08-12T04:35:44;16.63;;;15.00;;
68050;SDS011;54839;51.364;7.246;2023-08-12T04:38:10;14.10;;;12.63;;
68050;SDS011;54839;51.364;7.246;2023-08-12T04:40:38;15.30;;;13.73;;
68050;SDS011;54839;51.364;7.246;2023-08-12T04:43:04;17.13;;;15.43;;
68050;SDS011;54839;51.364;7.246;2023-08-12T04:45:30;16.97;;;15.37;;
68050;SDS011;54839;51.364;7.246;2023-08-12T04:47:57;16.50;;;14.70;;
68050;SDS011;54839;51.364;7.246;2023-08-12T04:50:22;18.63;;;15.10;;
68050;SDS011;54839;51.364;7.246;2023-08-12T04:52:48;16.70;;;14.53;;
68050;SDS011;54839;51.364;7.246;2023-08-12T04:55:14;14.47;;;13.07;;
68050;SDS011;54839;51.364;7.246;2023-08-12T04:57:40;13.00;;;11.80;;
68050;SDS011;54839;51.364;7.246;2023-08-12T05:00:05;16.70;;;14.83;;
68050;SDS011;54839;51.364;7.246;2023-08-12T05:02:34;15.97;;;14.37;;
68050;SDS011;54839;51.364;7.246;2023-08-12T05:05:00;13.67;;;12.27;;
68050;SDS011;54839;51.364;7.246;2023-08-12T05:07:26;12.73;;;11.47;;
68050;SDS011;54839;51.364;7.246;2023-08-12T05:09:52;11.23;;;10.17;;
68050;SDS011;54839;51.364;7.246;2023-08-12T05:12:18;9.80;;;8.90;;
68050;SDS011;54839;51.364;7.246;2023-08-12T05:14:44;9.23;;;8.30;;
68050;SDS011;54839;51.364;7.246;2023-08-12T05:17:10;9.77;;;8.87;;
68050;SDS011;54839;51.364;7.246;2023-08-12T05:19:35;11.13;;;8.23;;
68050;SDS011;54839;51.364;7.246;2023-08-12T05:22:01;10.67;;;8.37;;
68050;SDS011;54839;51.364;7.246;2023-08-12T05:24:26;11.00;;;8.50;;
68050;SDS011;54839;51.364;7.246;2023-08-12T05:26:52;9.70;;;8.70;;
68050;SDS011;54839;51.364;7.246;2023-08-12T05:29:18;9.93;;;8.93;;
68050;SDS011;54839;51.364;7.246;2023-08-12T05:31:43;11.67;;;7.90;;
68050;SDS011;54839;51.364;7.246;2023-08-12T05:34:09;8.20;;;6.63;;
68050;SDS011;54839;51.364;7.246;2023-08-12T05:36:35;10.20;;;8.47;;
68050;SDS011;54839;51.364;7.246;2023-08-12T05:39:01;12.30;;;8.47;;
68050;SDS011;54839;51.364;7.246;2023-08-12T05:41:28;8.13;;;7.33;;
68050;SDS011;54839;51.364;7.246;2023-08-12T05:43:53;8.63;;;7.53;;
68050;SDS011;54839;51.364;7.246;2023-08-12T05:46:19;9.73;;;8.40;;
68050;SDS011;54839;51.364;7.246;2023-08-12T05:48:45;9.40;;;6.47;;
68050;SDS011;54839;51.364;7.246;2023-08-12T05:51:10;8.60;;;7.13;;
68050;SDS011;54839;51.364;7.246;2023-08-12T05:53:36;7.80;;;6.37;;
68050;SDS011;54839;51.364;7.246;2023-08-12T05:56:01;7.03;;;6.33;;
68050;SDS011;54839;51.364;7.246;2023-08-12T05:58:27;7.33;;;6.73;;
68050;SDS011;54839;51.364;7.246;2023-08-12T06:00:52;8.23;;;6.63;;
68050;SDS011;54839;51.364;7.246;2023-08-12T06:03:18;7.13;;;6.53;;
68050;SDS011;54839;51.364;7.246;2023-08-12T06:05:44;8.17;;;7.37;;
68050;SDS011;54839;51.364;7.246;2023-08-12T06:08:12;7.70;;;7.00;;
68050;SDS011;54839;51.364;7.246;2023-08-12T06:10:38;7.73;;;6.93;;
68050;SDS011;54839;51.364;7.246;2023-08-12T06:13:04;10.37;;;6.33;;
68050;SDS011;54839;51.364;7.246;2023-08-12T06:15:30;9.40;;;8.40;;
68050;SDS011;54839;51.364;7.246;2023-08-12T06:17:56;9.20;;;6.93;;
68050;SDS011;54839;51.364;7.246;2023-08-12T06:20:22;9.03;;;7.07;;
68050;SDS011;54839;51.364;7.246;2023-08-12T06:22:49;9.90;;;6.60;;
68050;SDS011;54839;51.364;7.246;2023-08-12T06:25:15;7.27;;;5.93;;
68050;SDS011;54839;51.364;7.246;2023-08-12T06:27:41;6.30;;;5.70;;
68050;SDS011;54839;51.364;7.246;2023-08-12T06:30:06;6.97;;;6.27;;
68050;SDS011;54839;51.364;7.246;2023-08-12T06:32:35;8.20;;;5.20;;
68050;SDS011;54839;51.364;7.246;2023-08-12T06:35:01;6.57;;;5.43;;
68050;SDS011;54839;51.364;7.246;2023-08-12T06:37:27;7.70;;;6.30;;
68050;SDS011;54839;51.364;7.246;2023-08-12T06:39:52;6.33;;;5.70;;
68050;SDS011;54839;51.364;7.246;2023-08-12T06:42:18;6.63;;;5.80;;
68050;SDS011;54839;51.364;7.246;2023-08-12T06:44:44;5.57;;;5.07;;
68050;SDS011;54839;51.364;7.246;2023-08-12T06:47:10;6.73;;;4.70;;
68050;SDS011;54839;51.364;7.246;2023-08-12T06:49:36;6.17;;;5.60;;
68050;SDS011;54839;51.364;7.246;2023-08-12T06:52:01;7.63;;;6.00;;
68050;SDS011;54839;51.364;7.246;2023-08-12T06:54:27;7.53;;;6.60;;
68050;SDS011;54839;51.364;7.246;2023-08-12T06:56:52;6.53;;;5.93;;
68050;SDS011;54839;51.364;7.246;2023-08-12T06:59:18;6.30;;;5.80;;
68050;SDS011;54839;51.364;7.246;2023-08-12T07:01:44;7.30;;;4.90;;
68050;SDS011;54839;51.364;7.246;2023-08-12T07:04:09;7.73;;;6.00;;
68050;SDS011;54839;51.364;7.246;2023-08-12T07:06:35;11.87;;;5.70;;
68050;SDS011;54839;51.364;7.246;2023-08-12T07:09:00;6.20;;;5.50;;
68050;SDS011;54839;51.364;7.246;2023-08-12T07:11:26;7.97;;;5.20;;
68050;SDS011;54839;51.364;7.246;2023-08-12T07:13:52;5.83;;;5.17;;
68050;SDS011;54839;51.364;7.246;2023-08-12T07:16:17;8.43;;;5.93;;
68050;SDS011;54839;51.364;7.246;2023-08-12T07:18:43;4.77;;;4.23;;
68050;SDS011;54839;51.364;7.246;2023-08-12T07:21:08;5.73;;;4.80;;
68050;SDS011;54839;51.364;7.246;2023-08-12T07:23:34;4.97;;;4.57;;
68050;SDS011;54839;51.364;7.246;2023-08-12T07:25:59;5.97;;;4.57;;
68050;SDS011;54839;51.364;7.246;2023-08-12T07:28:25;4.50;;;4.10;;
68050;SDS011;54839;51.364;7.246;2023-08-12T07:30:50;4.33;;;3.97;;
68050;SDS011;54839;51.364;7.246;2023-08-12T07:33:17;4.33;;;3.93;;
68050;SDS011;54839;51.364;7.246;2023-08-12T07:35:43;3.50;;;3.30;;
68050;SDS011;54839;51.364;7.246;2023-08-12T07:38:08;4.63;;;4.20;;
68050;SDS011;54839;51.364;7.246;2023-08-12T07:40:34;4.63;;;4.23;;
68050;SDS011;54839;51.364;7.246;2023-08-12T07:43:00;4.27;;;3.87;;
68050;SDS011;54839;51.364;7.246;2023-08-12T07:45:26;3.20;;;2.90;;
68050;SDS011;54839;51.364;7.246;2023-08-12T07:47:51;4.03;;;3.60;;
68050;SDS011;54839;51.364;7.246;2023-08-12T07:50:17;5.50;;;4.70;;
68050;SDS011;54839;51.364;7.246;2023-08-12T07:52:43;3.87;;;3.57;;
68050;SDS011;54839;51.364;7.246;2023-08-12T07:55:09;4.03;;;3.40;;
68050;SDS011;54839;51.364;7.246;2023-08-12T07:57:34;3.77;;;3.47;;
68050;SDS011;54839;51.364;7.246;2023-08-12T08:00:00;3.90;;;3.60;;
68050;SDS011;54839;51.364;7.246;2023-08-12T08:02:25;4.60;;;3.20;;
68050;SDS011;54839;51.364;7.246;2023-08-12T08:04:51;4.20;;;3.50;;
68050;SDS011;54839;51.364;7.246;2023-08-12T08:07:16;5.67;;;3.60;;
68050;SDS011;54839;51.364;7.246;2023-08-12T08:09:43;6.33;;;3.77;;
68050;SDS011;54839;51.364;7.246;2023-08-12T08:12:09;3.57;;;3.27;;
68050;SDS011;54839;51.364;7.246;2023-08-12T08:14:35;5.17;;;3.23;;
68050;SDS011;54839;51.364;7.246;2023-08-12T08:17:01;4.37;;;3.90;;
68050;SDS011;54839;51.364;7.246;2023-08-12T08:19:27;3.70;;;3.40;;
68050;SDS011;54839;51.364;7.246;2023-08-12T08:21:52;3.87;;;3.50;;
68050;SDS011;54839;51.364;7.246;2023-08-12T08:24:18;4.80;;;3.67;;
68050;SDS011;54839;51.364;7.246;2023-08-12T08:26:43;3.80;;;3.40;;
68050;SDS011;54839;51.364;7.246;2023-08-12T08:29:12;3.50;;;3.20;;
68050;SDS011;54839;51.364;7.246;2023-08-12T08:31:38;3.10;;;2.80;;
68050;SDS011;54839;51.364;7.246;2023-08-12T08:34:04;4.07;;;3.67;;
68050;SDS011;54839;51.364;7.246;2023-08-12T08:36:29;4.90;;;4.50;;
68050;SDS011;54839;51.364;7.246;2023-08-12T08:38:55;7.20;;;3.77;;
68050;SDS011;54839;51.364;7.246;2023-08-12T08:41:21;4.40;;;4.10;;
68050;SDS011;54839;51.364;7.246;2023-08-12T08:43:47;5.17;;;4.43;;
68050;SDS011;54839;51.364;7.246;2023-08-12T08:46:16;5.37;;;4.20;;
68050;SDS011;54839;51.364;7.246;2023-08-12T08:48:42;5.90;;;5.43;;
68050;SDS011;54839;51.364;7.246;2023-08-12T08:51:09;5.20;;;4.80;;
68050;SDS011;54839;51.364;7.246;2023-08-12T08:53:40;4.63;;;4.23;;
68050;SDS011;54839;51.364;7.246;2023-08-12T08:56:06;11.40;;;5.17;;
68050;SDS011;54839;51.364;7.246;2023-08-12T08:58:33;5.13;;;4.50;;
68050;SDS011;54839;51.364;7.246;2023-08-12T09:00:59;4.53;;;3.87;;
68050;SDS011;54839;51.364;7.246;2023-08-12T09:03:26;4.93;;;4.50;;
68050;SDS011;54839;51.364;7.246;2023-08-12T09:05:52;5.30;;;4.80;;
68050;SDS011;54839;51.364;7.246;2023-08-12T09:08:20;5.93;;;4.00;;
68050;SDS011;54839;51.364;7.246;2023-08-12T09:10:47;4.63;;;4.30;;
68050;SDS011;54839;51.364;7.246;2023-08-12T09:13:14;5.67;;;5.17;;
68050;SDS011;54839;51.364;7.246;2023-08-12T09:15:40;4.60;;;4.20;;
68050;SDS011;54839;51.364;7.246;2023-08-12T09:18:06;4.57;;;4.17;;
68050;SDS011;54839;51.364;7.246;2023-08-12T09:20:32;6.30;;;4.27;;
68050;SDS011;54839;51.364;7.246;2023-08-12T09:22:59;4.80;;;4.40;;
68050;SDS011;54839;51.364;7.246;2023-08-12T09:25:28;4.60;;;3.60;;
68050;SDS011;54839;51.364;7.246;2023-08-12T09:27:55;3.40;;;3.10;;
68050;SDS011;54839;51.364;7.246;2023-08-12T09:30:24;3.57;;;3.10;;
68050;SDS011;54839;51.364;7.246;2023-08-12T09:33:06;5.00;;;4.10;;
68050;SDS011;54839;51.364;7.246;2023-08-12T09:35:40;4.70;;;2.77;;
68050;SDS011;54839;51.364;7.246;2023-08-12T09:38:07;3.27;;;2.97;;
68050;SDS011;54839;51.364;7.246;2023-08-12T09:40:36;2.80;;;2.50;;
68050;SDS011;54839;51.364;7.246;2023-08-12T09:43:02;3.60;;;3.30;;
68050;SDS011;54839;51.364;7.246;2023-08-12T09:45:29;2.53;;;2.30;;
68050;SDS011;54839;51.364;7.246;2023-08-12T09:47:55;3.13;;;2.83;;
68050;SDS011;54839;51.364;7.246;2023-08-12T09:50:22;3.47;;;2.63;;
68050;SDS011;54839;51.364;7.246;2023-08-12T09:52:48;3.40;;;2.63;;
68050;SDS011;54839;51.364;7.246;2023-08-12T09:55:15;2.53;;;2.30;;
68050;SDS011;54839;51.364;7.246;2023-08-12T09:57:43;2.63;;;2.40;;
68050;SDS011;54839;51.364;7.246;2023-08-12T10:00:09;2.80;;;2.27;;
68050;SDS011;54839;51.364;7.246;2023-08-12T10:02:41;2.57;;;2.30;;
68050;SDS011;54839;51.364;7.246;2023-08-12T10:05:32;1.97;;;1.87;;
68050;SDS011;54839;51.364;7.246;2023-08-12T10:07:57;2.07;;;1.87;;
68050;SDS011;54839;51.364;7.246;2023-08-12T10:10:27;2.80;;;1.47;;
68050;SDS011;54839;51.364;7.246;2023-08-12T10:12:55;4.97;;;1.67;;
68050;SDS011;54839;51.364;7.246;2023-08-12T10:15:21;2.70;;;1.43;;
68050;SDS011;54839;51.364;7.246;2023-08-12T10:17:47;1.93;;;1.73;;
68050;SDS011;54839;51.364;7.246;2023-08-12T10:20:20;1.80;;;1.70;;
68050;SDS011;54839;51.364;7.246;2023-08-12T10:22:50;1.27;;;1.17;;
68050;SDS011;54839;51.364;7.246;2023-08-12T10:25:17;2.80;;;1.60;;
68050;SDS011;54839;51.364;7.246;2023-08-12T10:27:46;1.97;;;1.87;;
68050;SDS011;54839;51.364;7.246;2023-08-12T10:30:13;2.50;;;1.83;;
68050;SDS011;54839;51.364;7.246;2023-08-12T10:32:39;2.27;;;1.77;;
68050;SDS011;54839;51.364;7.246;2023-08-12T10:35:05;2.40;;;1.60;;
68050;SDS011;54839;51.364;7.246;2023-08-12T10:37:31;2.13;;;1.90;;
68050;SDS011;54839;51.364;7.246;2023-08-12T10:39:59;3.77;;;1.87;;
68050;SDS011;54839;51.364;7.246;2023-08-12T10:45:10;2.97;;;1.70;;
68050;SDS011;54839;51.364;7.246;2023-08-12T10:47:40;2.67;;;1.90;;
68050;SDS011;54839;51.364;7.246;2023-08-12T10:50:16;2.53;;;1.80;;
68050;SDS011;54839;51.364;7.246;2023-08-12T10:52:45;1.47;;;1.37;;
68050;SDS011;54839;51.364;7.246;2023-08-12T10:55:24;2.03;;;1.53;;
68050;SDS011;54839;51.364;7.246;2023-08-12T10:57:53;1.40;;;1.20;;
68050;SDS011;54839;51.364;7.246;2023-08-12T11:00:23;4.03;;;2.90;;
68050;SDS011;54839;51.364;7.246;2023-08-12T11:02:50;4.70;;;1.80;;
68050;SDS011;54839;51.364;7.246;2023-08-12T11:05:20;1.73;;;1.63;;
68050;SDS011;54839;51.364;7.246;2023-08-12T11:07:55;2.67;;;1.70;;
68050;SDS011;54839;51.364;7.246;2023-08-12T11:10:22;2.50;;;2.07;;
68050;SDS011;54839;51.364;7.246;2023-08-12T11:15:33;2.03;;;1.83;;
68050;SDS011;54839;51.364;7.246;2023-08-12T11:18:05;3.40;;;2.13;;
68050;SDS011;54839;51.364;7.246;2023-08-12T11:20:33;2.47;;;1.67;;
68050;SDS011;54839;51.364;7.246;2023-08-12T11:22:59;2.30;;;1.90;;
68050;SDS011;54839;51.364;7.246;2023-08-12T11:25:27;2.80;;;1.53;;
68050;SDS011;54839;51.364;7.246;2023-08-12T11:27:53;1.83;;;1.60;;
68050;SDS011;54839;51.364;7.246;2023-08-12T11:30:20;2.23;;;2.00;;
68050;SDS011;54839;51.364;7.246;2023-08-12T11:32:47;1.70;;;1.30;;
68050;SDS011;54839;51.364;7.246;2023-08-12T11:35:23;4.10;;;1.50;;
68050;SDS011;54839;51.364;7.246;2023-08-12T11:37:50;2.70;;;2.13;;
68050;SDS011;54839;51.364;7.246;2023-08-12T11:40:21;1.80;;;1.67;;
68050;SDS011;54839;51.364;7.246;2023-08-12T11:42:47;5.10;;;2.60;;
68050;SDS011;54839;51.364;7.246;2023-08-12T11:45:22;7.77;;;2.70;;
68050;SDS011;54839;51.364;7.246;2023-08-12T11:47:49;5.10;;;3.43;;
68050;SDS011;54839;51.364;7.246;2023-08-12T11:50:19;2.60;;;1.93;;
68050;SDS011;54839;51.364;7.246;2023-08-12T11:52:45;2.37;;;2.20;;
68050;SDS011;54839;51.364;7.246;2023-08-12T11:55:12;1.63;;;1.20;;
68050;SDS011;54839;51.364;7.246;2023-08-12T11:57:41;1.20;;;0.87;;
68050;SDS011;54839;51.364;7.246;2023-08-12T12:00:09;3.27;;;1.20;;
68050;SDS011;54839;51.364;7.246;2023-08-12T12:02:39;1.30;;;1.20;;
68050;SDS011;54839;51.364;7.246;2023-08-12T12:05:12;1.33;;;0.87;;
68050;SDS011;54839;51.364;7.246;2023-08-12T12:07:38;1.77;;;1.10;;
68050;SDS011;54839;51.364;7.246;2023-08-12T12:10:04;1.83;;;1.10;;
68050;SDS011;54839;51.364;7.246;2023-08-12T12:12:32;1.10;;;0.90;;
68050;SDS011;54839;51.364;7.246;2023-08-12T12:15:00;1.60;;;1.20;;
68050;SDS011;54839;51.364;7.246;2023-08-12T12:17:25;1.80;;;1.10;;
68050;SDS011;54839;51.364;7.246;2023-08-12T12:19:52;1.10;;;0.83;;
68050;SDS011;54839;51.364;7.246;2023-08-12T12:22:20;1.20;;;0.77;;
68050;SDS011;54839;51.364;7.246;2023-08-12T12:24:45;2.43;;;1.03;;
68050;SDS011;54839;51.364;7.246;2023-08-12T12:27:12;2.40;;;0.97;;
68050;SDS011;54839;51.364;7.246;2023-08-12T12:29:38;1.40;;;0.97;;
68050;SDS011;54839;51.364;7.246;2023-08-12T12:32:04;3.17;;;1.30;;
68050;SDS011;54839;51.364;7.246;2023-08-12T12:34:30;1.37;;;1.20;;
68050;SDS011;54839;51.364;7.246;2023-08-12T12:36:55;1.47;;;1.30;;
68050;SDS011;54839;51.364;7.246;2023-08-12T12:39:21;1.63;;;1.20;;
68050;SDS011;54839;51.364;7.246;2023-08-12T12:41:48;1.80;;;1.27;;
68050;SDS011;54839;51.364;7.246;2023-08-12T12:44:14;1.70;;;1.47;;
68050;SDS011;54839;51.364;7.246;2023-08-12T12:46:39;1.53;;;1.43;;
68050;SDS011;54839;51.364;7.246;2023-08-12T12:49:05;1.47;;;1.13;;
68050;SDS011;54839;51.364;7.246;2023-08-12T12:51:31;3.60;;;1.70;;
68050;SDS011;54839;51.364;7.246;2023-08-12T12:53:56;0.93;;;0.80;;
68050;SDS011;54839;51.364;7.246;2023-08-12T12:56:22;1.10;;;1.00;;
68050;SDS011;54839;51.364;7.246;2023-08-12T12:58:48;1.33;;;1.23;;
68050;SDS011;54839;51.364;7.246;2023-08-12T13:01:13;2.67;;;1.40;;
68050;SDS011;54839;51.364;7.246;2023-08-12T13:03:39;2.73;;;1.00;;
68050;SDS011;54839;51.364;7.246;2023-08-12T13:06:05;1.20;;;1.10;;
68050;SDS011;54839;51.364;7.246;2023-08-12T13:08:30;1.60;;;1.50;;
68050;SDS011;54839;51.364;7.246;2023-08-12T13:10:56;1.97;;;1.60;;
68050;SDS011;54839;51.364;7.246;2023-08-12T13:13:22;2.90;;;1.20;;
68050;SDS011;54839;51.364;7.246;2023-08-12T13:15:48;6.17;;;0.90;;
68050;SDS011;54839;51.364;7.246;2023-08-12T13:18:14;1.93;;;1.00;;
68050;SDS011;54839;51.364;7.246;2023-08-12T13:20:39;1.57;;;1.47;;
68050;SDS011;54839;51.364;7.246;2023-08-12T13:23:05;2.30;;;1.60;;
68050;SDS011;54839;51.364;7.246;2023-08-12T13:25:34;1.87;;;1.70;;
68050;SDS011;54839;51.364;7.246;2023-08-12T13:28:00;2.63;;;2.43;;
68050;SDS011;54839;51.364;7.246;2023-08-12T13:30:26;2.33;;;2.23;;
68050;SDS011;54839;51.364;7.246;2023-08-12T13:32:52;2.03;;;1.93;;
68050;SDS011;54839;51.364;7.246;2023-08-12T13:35:18;3.60;;;3.10;;
68050;SDS011;54839;51.364;7.246;2023-08-12T13:37:44;3.10;;;2.90;;
68050;SDS011;54839;51.364;7.246;2023-08-12T13:40:09;2.87;;;2.67;;
68050;SDS011;54839;51.364;7.246;2023-08-12T13:42:36;3.80;;;3.50;;
68050;SDS011;54839;51.364;7.246;2023-08-12T13:45:05;3.63;;;3.30;;
68050;SDS011;54839;51.364;7.246;2023-08-12T13:47:31;3.03;;;2.73;;
68050;SDS011;54839;51.364;7.246;2023-08-12T13:49:58;2.60;;;2.40;;
68050;SDS011;54839;51.364;7.246;2023-08-12T13:52:24;2.73;;;2.53;;
68050;SDS011;54839;51.364;7.246;2023-08-12T13:54:49;3.77;;;3.47;;
68050;SDS011;54839;51.364;7.246;2023-08-12T13:57:15;3.83;;;3.53;;
68050;SDS011;54839;51.364;7.246;2023-08-12T13:59:40;3.30;;;3.00;;
68050;SDS011;54839;51.364;7.246;2023-08-12T14:02:08;3.83;;;3.60;;
68050;SDS011;54839;51.364;7.246;2023-08-12T14:04:35;3.23;;;3.03;;
68050;SDS011;54839;51.364;7.246;2023-08-12T14:07:00;2.83;;;2.63;;
68050;SDS011;54839;51.364;7.246;2023-08-12T14:09:26;2.80;;;2.60;;
68050;SDS011;54839;51.364;7.246;2023-08-12T14:11:51;3.60;;;3.40;;
68050;SDS011;54839;51.364;7.246;2023-08-12T14:14:17;3.17;;;2.87;;
68050;SDS011;54839;51.364;7.246;2023-08-12T14:16:42;3.20;;;2.80;;
68050;SDS011;54839;51.364;7.246;2023-08-12T14:19:08;3.17;;;2.87;;
68050;SDS011;54839;51.364;7.246;2023-08-12T14:21:34;2.70;;;2.50;;
68050;SDS011;54839;51.364;7.246;2023-08-12T14:23:59;2.20;;;2.10;;
68050;SDS011;54839;51.364;7.246;2023-08-12T14:26:25;2.43;;;2.23;;
68050;SDS011;54839;51.364;7.246;2023-08-12T14:28:50;2.30;;;2.20;;
68050;SDS011;54839;51.364;7.246;2023-08-12T14:31:16;2.80;;;2.60;;
68050;SDS011;54839;51.364;7.246;2023-08-12T14:33:41;2.30;;;2.20;;
68050;SDS011;54839;51.364;7.246;2023-08-12T14:36:07;2.57;;;2.37;;
68050;SDS011;54839;51.364;7.246;2023-08-12T14:38:32;3.07;;;2.07;;
68050;SDS011;54839;51.364;7.246;2023-08-12T14:40:59;4.47;;;3.37;;
68050;SDS011;54839;51.364;7.246;2023-08-12T14:43:24;2.30;;;2.10;;